createdAt,value
2022-10-04T00:00:59.668Z,7.90
2022-10-04T00:01:59.990Z,8.90
2022-10-04T00:03:00.065Z,9.50
2022-10-04T00:04:00.191Z,7.30
2022-10-04T00:05:00.354Z,9.80
2022-10-04T00:06:00.529Z,6.80
2022-10-04T00:07:00.797Z,9.20
2022-10-04T00:08:00.908Z,8.40
2022-10-04T00:09:01.052Z,8.00
2022-10-04T00:10:01.215Z,9.30
2022-10-04T00:11:01.408Z,7.20
2022-10-04T00:12:01.592Z,9.50
2022-10-04T00:13:01.862Z,7.40
2022-10-04T00:14:01.861Z,8.60
2022-10-04T00:15:02.039Z,7.00
2022-10-04T00:16:02.197Z,6.80
2022-10-04T00:17:02.316Z,7.10
2022-10-04T00:18:02.618Z,7.40
2022-10-04T00:19:02.624Z,8.40
2022-10-04T00:20:02.784Z,7.60
2022-10-04T00:21:02.944Z,7.00
2022-10-04T00:22:03.095Z,7.30
2022-10-04T00:23:03.311Z,7.70
2022-10-04T00:24:03.433Z,7.00
2022-10-04T00:25:03.571Z,7.60
2022-10-04T00:26:03.711Z,6.90
2022-10-04T00:27:03.859Z,6.10
2022-10-04T00:28:04.328Z,7.30
2022-10-04T00:29:04.168Z,6.90
2022-10-04T00:30:04.313Z,7.50
2022-10-04T00:31:04.542Z,7.60
2022-10-04T00:32:04.613Z,8.40
2022-10-04T00:33:04.972Z,7.60
2022-10-04T00:34:04.905Z,9.50
2022-10-04T00:35:05.049Z,8.20
2022-10-04T00:36:05.187Z,7.90
2022-10-04T00:37:05.351Z,7.20
2022-10-04T00:38:05.621Z,10.60
2022-10-04T00:39:05.643Z,8.50
2022-10-04T00:40:05.802Z,7.30
2022-10-04T00:41:05.938Z,9.00
2022-10-04T00:42:06.082Z,8.10
2022-10-04T00:43:06.288Z,9.10
2022-10-04T00:44:06.373Z,7.30
2022-10-04T00:45:06.524Z,9.50
2022-10-04T00:46:06.768Z,8.80
2022-10-04T00:47:06.805Z,8.70
2022-10-04T00:48:06.975Z,7.90
2022-10-04T00:49:07.233Z,7.40
2022-10-04T00:50:07.214Z,7.30
2022-10-04T00:51:07.356Z,7.50
2022-10-04T00:52:07.482Z,7.20
2022-10-04T00:53:07.624Z,7.90
2022-10-04T00:54:07.793Z,8.90
2022-10-04T00:55:07.905Z,7.40
2022-10-04T00:56:08.049Z,9.00
2022-10-04T00:57:08.201Z,8.50
2022-10-04T00:58:08.376Z,9.40
2022-10-04T00:59:08.736Z,9.40
2022-10-04T01:00:08.725Z,9.00
2022-10-04T01:01:09.066Z,8.50
2022-10-04T01:02:09.168Z,7.60
2022-10-04T01:03:09.233Z,7.80
2022-10-04T01:04:09.431Z,7.40
2022-10-04T01:05:09.592Z,8.40
2022-10-04T01:06:09.731Z,8.80
2022-10-04T01:07:09.895Z,7.40
2022-10-04T01:08:10.056Z,8.80
2022-10-04T01:09:10.296Z,8.50
2022-10-04T01:10:10.402Z,8.30
2022-10-04T01:11:10.594Z,9.40
2022-10-04T01:12:10.741Z,7.90
2022-10-04T01:13:10.911Z,9.20
2022-10-04T01:14:11.123Z,8.40
2022-10-04T01:15:11.410Z,8.30
2022-10-04T01:16:11.542Z,8.90
2022-10-04T01:17:11.563Z,10.10
2022-10-04T01:18:11.736Z,10.00
2022-10-04T01:19:11.904Z,8.40
2022-10-04T01:20:12.160Z,8.10
2022-10-04T01:21:12.253Z,7.50
2022-10-04T01:22:12.431Z,7.10
2022-10-04T01:23:12.592Z,7.60
2022-10-04T01:24:12.752Z,6.50
2022-10-04T01:25:12.951Z,8.60
2022-10-04T01:26:13.082Z,8.00
2022-10-04T01:27:13.258Z,11.40
2022-10-04T01:28:13.501Z,10.20
2022-10-04T01:29:13.586Z,10.00
2022-10-04T01:30:13.866Z,8.50
2022-10-04T01:31:14.004Z,8.70
2022-10-04T01:32:14.098Z,8.90
2022-10-04T01:33:14.237Z,9.60
2022-10-04T01:34:14.396Z,9.20
2022-10-04T01:35:14.591Z,9.00
2022-10-04T01:36:14.722Z,8.70
2022-10-04T01:37:14.903Z,9.30
2022-10-04T01:38:15.076Z,8.10
2022-10-04T01:39:15.188Z,8.50
2022-10-04T01:40:15.321Z,8.80
2022-10-04T01:41:15.497Z,8.90
2022-10-04T01:42:15.592Z,8.60
2022-10-04T01:43:15.749Z,9.50
2022-10-04T01:44:15.880Z,8.70
2022-10-04T01:45:16.008Z,9.30
2022-10-04T01:46:16.203Z,10.30
2022-10-04T01:47:16.318Z,8.20
2022-10-04T01:48:16.451Z,10.00
2022-10-04T01:49:16.587Z,7.60
2022-10-04T01:50:16.724Z,9.50
2022-10-04T01:51:16.900Z,8.80
2022-10-04T01:52:17.196Z,7.50
2022-10-04T01:53:17.154Z,9.20
2022-10-04T01:54:17.294Z,7.20
2022-10-04T01:55:17.443Z,9.40
2022-10-04T01:56:17.592Z,8.30
2022-10-04T01:57:17.851Z,9.50
2022-10-04T01:58:17.877Z,9.30
2022-10-04T01:59:18.024Z,9.90
2022-10-04T02:00:18.160Z,7.20
2022-10-04T02:01:18.412Z,9.10
2022-10-04T02:02:18.625Z,8.40
2022-10-04T02:03:18.619Z,8.90
2022-10-04T02:04:22.304Z,8.40
2022-10-04T02:05:18.927Z,8.70
2022-10-04T02:06:19.339Z,10.00
2022-10-04T02:07:19.203Z,8.40
2022-10-04T02:08:19.355Z,7.60
2022-10-04T02:09:19.508Z,8.70
2022-10-04T02:10:19.651Z,8.00
2022-10-04T02:11:19.884Z,10.20
2022-10-04T02:12:19.966Z,9.10
2022-10-04T02:13:20.098Z,9.30
2022-10-04T02:14:20.249Z,7.40
2022-10-04T02:15:20.398Z,7.40
2022-10-04T02:16:20.808Z,8.20
2022-10-04T02:17:20.711Z,8.90
2022-10-04T02:18:20.893Z,8.30
2022-10-04T02:19:21.023Z,8.80
2022-10-04T02:20:21.165Z,9.40
2022-10-04T02:21:21.366Z,7.80
2022-10-04T02:22:21.456Z,7.30
2022-10-04T02:23:21.615Z,7.80
2022-10-04T02:24:21.792Z,8.80
2022-10-04T02:25:21.913Z,8.70
2022-10-04T02:26:22.067Z,7.60
2022-10-04T02:27:22.251Z,7.80
2022-10-04T02:28:22.465Z,9.60
2022-10-04T02:29:22.678Z,8.20
2022-10-04T02:30:22.668Z,7.90
2022-10-04T02:31:22.941Z,8.60
2022-10-04T02:32:22.991Z,8.50
2022-10-04T02:33:23.195Z,9.50
2022-10-04T02:34:23.413Z,10.30
2022-10-04T02:35:23.523Z,9.90
2022-10-04T02:36:23.689Z,10.00
2022-10-04T02:37:23.857Z,8.80
2022-10-04T02:38:24.028Z,9.00
2022-10-04T02:39:24.482Z,8.00
2022-10-04T02:40:24.374Z,8.40
2022-10-04T02:41:24.554Z,8.80
2022-10-04T02:42:24.730Z,8.10
2022-10-04T02:43:24.912Z,8.90
2022-10-04T02:44:25.121Z,10.00
2022-10-04T02:45:25.353Z,9.40
2022-10-04T02:46:25.546Z,7.90
2022-10-04T02:47:25.629Z,8.60
2022-10-04T02:48:25.833Z,9.60
2022-10-04T02:49:25.999Z,10.10
2022-10-04T02:50:26.302Z,8.30
2022-10-04T02:51:26.365Z,9.40
2022-10-04T02:52:26.545Z,9.80
2022-10-04T02:53:26.728Z,8.90
2022-10-04T02:54:26.937Z,11.20
2022-10-04T02:55:27.150Z,8.70
2022-10-04T02:56:27.291Z,9.20
2022-10-04T02:57:27.466Z,9.00
2022-10-04T02:58:27.654Z,8.50
2022-10-04T02:59:27.835Z,9.30
2022-10-04T03:00:28.111Z,11.40
2022-10-04T03:01:28.251Z,10.10
2022-10-04T03:02:29.969Z,9.60
2022-10-04T03:03:28.552Z,9.10
2022-10-04T03:04:28.701Z,10.30
2022-10-04T03:05:28.967Z,8.80
2022-10-04T03:06:29.045Z,9.80
2022-10-04T03:07:29.224Z,10.20
2022-10-04T03:08:29.380Z,11.10
2022-10-04T03:09:30.127Z,7.40
2022-10-04T03:10:29.817Z,10.20
2022-10-04T03:11:29.854Z,9.60
2022-10-04T03:12:30.021Z,9.50
2022-10-04T03:13:30.172Z,11.00
2022-10-04T03:14:30.312Z,9.10
2022-10-04T03:15:30.676Z,9.90
2022-10-04T03:16:30.674Z,11.10
2022-10-04T03:17:30.715Z,11.30
2022-10-04T03:18:30.845Z,9.80
2022-10-04T03:19:31.021Z,10.50
2022-10-04T03:20:31.431Z,11.30
2022-10-04T03:21:31.286Z,10.40
2022-10-04T03:22:31.436Z,10.00
2022-10-04T03:23:31.585Z,11.40
2022-10-04T03:24:31.736Z,12.00
2022-10-04T03:25:32.071Z,11.40
2022-10-04T03:26:32.018Z,13.00
2022-10-04T03:27:32.167Z,11.90
2022-10-04T03:28:32.441Z,10.40
2022-10-04T03:29:32.470Z,12.90
2022-10-04T03:30:32.823Z,11.70
2022-10-04T03:31:32.816Z,10.80
2022-10-04T03:32:32.927Z,11.90
2022-10-04T03:33:33.077Z,11.70
2022-10-04T03:34:33.230Z,9.20
2022-10-04T03:35:33.438Z,11.40
2022-10-04T03:36:33.539Z,10.10
2022-10-04T03:37:33.900Z,11.60
2022-10-04T03:38:33.836Z,10.20
2022-10-04T03:39:33.993Z,10.50
2022-10-04T03:40:34.136Z,11.30
2022-10-04T03:41:34.303Z,11.50
2022-10-04T03:42:34.506Z,12.90
2022-10-04T03:43:34.628Z,11.90
2022-10-04T03:44:34.808Z,10.70
2022-10-04T03:45:35.019Z,10.00
2022-10-04T03:46:35.135Z,11.60
2022-10-04T03:47:35.404Z,11.30
2022-10-04T03:48:35.476Z,11.50
2022-10-04T03:49:35.642Z,11.40
2022-10-04T03:50:35.959Z,12.70
2022-10-04T03:51:35.994Z,10.30
2022-10-04T03:52:36.258Z,9.30
2022-10-04T03:53:36.342Z,9.70
2022-10-04T03:54:36.515Z,10.50
2022-10-04T03:55:36.682Z,12.70
2022-10-04T03:56:36.854Z,10.20
2022-10-04T03:57:37.062Z,11.30
2022-10-04T03:58:37.201Z,9.30
2022-10-04T03:59:37.383Z,11.70
2022-10-04T04:00:37.562Z,12.70
2022-10-04T04:01:37.984Z,13.70
2022-10-04T04:02:40.396Z,11.70
2022-10-04T04:03:38.014Z,11.20
2022-10-04T04:04:38.172Z,13.60
2022-10-04T04:05:38.353Z,11.40
2022-10-04T04:06:38.554Z,12.70
2022-10-04T04:07:38.663Z,10.60
2022-10-04T04:08:38.820Z,11.20
2022-10-04T04:09:38.971Z,13.50
2022-10-04T04:10:39.108Z,13.70
2022-10-04T04:11:39.475Z,10.70
2022-10-04T04:12:39.401Z,12.20
2022-10-04T04:13:39.554Z,11.20
2022-10-04T04:14:39.741Z,11.70
2022-10-04T04:15:39.871Z,12.60
2022-10-04T04:16:40.129Z,13.80
2022-10-04T04:17:40.229Z,10.80
2022-10-04T04:18:40.439Z,12.00
2022-10-04T04:19:40.583Z,11.30
2022-10-04T04:20:40.783Z,11.60
2022-10-04T04:21:41.408Z,12.40
2022-10-04T04:22:41.120Z,10.80
2022-10-04T04:23:41.270Z,12.30
2022-10-04T04:24:41.416Z,10.90
2022-10-04T04:25:41.563Z,10.60
2022-10-04T04:26:41.745Z,12.60
2022-10-04T04:27:41.861Z,10.70
2022-10-04T04:28:42.043Z,11.30
2022-10-04T04:29:42.160Z,10.30
2022-10-04T04:30:42.318Z,11.50
2022-10-04T04:31:42.877Z,10.40
2022-10-04T04:32:42.639Z,10.90
2022-10-04T04:33:42.810Z,11.50
2022-10-04T04:34:42.960Z,11.80
2022-10-04T04:35:43.139Z,12.40
2022-10-04T04:36:43.425Z,11.10
2022-10-04T04:37:43.420Z,12.20
2022-10-04T04:38:43.572Z,10.50
2022-10-04T04:39:43.723Z,11.70
2022-10-04T04:40:43.882Z,14.10
2022-10-04T04:41:49.525Z,11.70
2022-10-04T04:42:44.282Z,12.40
2022-10-04T04:43:44.344Z,11.00
2022-10-04T04:44:44.502Z,11.10
2022-10-04T04:45:44.705Z,11.30
2022-10-04T04:46:44.882Z,11.20
2022-10-04T04:47:45.013Z,13.60
2022-10-04T04:48:45.143Z,12.10
2022-10-04T04:49:45.300Z,11.40
2022-10-04T04:50:45.501Z,11.10
2022-10-04T04:51:45.780Z,10.70
2022-10-04T04:52:45.772Z,10.60
2022-10-04T04:53:45.931Z,11.20
2022-10-04T04:54:46.111Z,10.80
2022-10-04T04:56:05.266Z,11.70
2022-10-04T04:56:46.491Z,10.60
2022-10-04T04:57:46.626Z,10.80
2022-10-04T04:58:46.804Z,10.50
2022-10-04T04:59:47.067Z,11.70
2022-10-04T05:00:47.211Z,10.60
2022-10-04T05:01:47.365Z,11.20
2022-10-04T05:02:47.470Z,12.30
2022-10-04T05:03:47.629Z,11.10
2022-10-04T05:04:47.828Z,11.30
2022-10-04T05:05:47.973Z,11.80
2022-10-04T05:06:48.109Z,12.40
2022-10-04T05:07:48.280Z,11.40
2022-10-04T05:08:48.448Z,11.80
2022-10-04T05:09:48.768Z,11.00
2022-10-04T05:10:48.795Z,11.10
2022-10-04T05:11:48.975Z,12.10
2022-10-04T05:12:49.157Z,13.80
2022-10-04T05:13:49.331Z,11.70
2022-10-04T05:14:49.498Z,10.40
2022-10-04T05:15:49.646Z,10.60
2022-10-04T05:16:49.885Z,10.60
2022-10-04T05:17:50.261Z,11.60
2022-10-04T05:18:50.181Z,12.80
2022-10-04T05:19:50.350Z,12.40
2022-10-04T05:20:50.546Z,10.60
2022-10-04T05:21:50.695Z,10.10
2022-10-04T05:22:51.116Z,12.10
2022-10-04T05:23:51.050Z,12.40
2022-10-04T05:24:51.213Z,9.30
2022-10-04T05:25:51.366Z,11.10
2022-10-04T05:26:51.508Z,12.20
2022-10-04T05:27:51.737Z,12.20
2022-10-04T05:28:51.982Z,14.20
2022-10-04T05:29:51.953Z,11.90
2022-10-04T05:30:52.105Z,12.30
2022-10-04T05:31:52.325Z,15.10
2022-10-04T05:32:52.387Z,12.00
2022-10-04T05:33:52.602Z,13.30
2022-10-04T05:34:52.681Z,13.10
2022-10-04T05:35:52.844Z,12.50
2022-10-04T05:36:52.962Z,12.70
2022-10-04T05:37:53.095Z,11.30
2022-10-04T05:38:53.483Z,13.90
2022-10-04T05:39:53.392Z,12.00
2022-10-04T05:40:53.582Z,11.60
2022-10-04T05:41:53.678Z,12.40
2022-10-04T05:42:53.798Z,12.90
2022-10-04T05:43:53.978Z,11.70
2022-10-04T05:44:54.110Z,13.70
2022-10-04T05:45:54.320Z,12.80
2022-10-04T05:46:54.424Z,13.20
2022-10-04T05:47:54.666Z,12.60
2022-10-04T05:48:54.739Z,12.40
2022-10-04T05:49:54.908Z,13.80
2022-10-04T05:50:55.082Z,13.40
2022-10-04T05:51:55.285Z,13.10
2022-10-04T05:52:55.459Z,13.60
2022-10-04T05:53:55.585Z,13.50
2022-10-04T05:54:55.948Z,14.70
2022-10-04T05:55:55.925Z,13.80
2022-10-04T05:56:56.091Z,14.40
2022-10-04T05:57:56.255Z,11.40
2022-10-04T05:58:56.426Z,13.20
2022-10-04T06:00:00.528Z,12.30
2022-10-04T06:00:56.865Z,15.00
2022-10-04T06:01:57.106Z,12.40
2022-10-04T06:02:57.248Z,12.70
2022-10-04T06:03:57.307Z,14.50
2022-10-04T06:04:57.540Z,13.20
2022-10-04T06:05:57.658Z,12.60
2022-10-04T06:06:57.859Z,14.70
2022-10-04T06:07:58.016Z,13.60
2022-10-04T06:08:58.189Z,14.10
2022-10-04T06:09:58.428Z,14.50
2022-10-04T06:10:58.551Z,12.80
2022-10-04T06:11:58.728Z,13.90
2022-10-04T06:12:58.904Z,13.70
2022-10-04T06:13:59.082Z,17.10
2022-10-04T06:14:59.295Z,15.60
2022-10-04T06:15:59.435Z,13.30
2022-10-04T06:16:59.660Z,14.10
2022-10-04T06:17:59.774Z,13.90
2022-10-04T06:18:59.930Z,13.00
2022-10-04T06:20:00.120Z,13.80
2022-10-04T06:21:00.268Z,17.20
2022-10-04T06:22:00.412Z,13.40
2022-10-04T06:23:00.522Z,15.80
2022-10-04T06:24:00.674Z,14.30
2022-10-04T06:25:00.822Z,13.90
2022-10-04T06:26:01.013Z,12.60
2022-10-04T06:27:01.121Z,13.20
2022-10-04T06:28:01.324Z,13.10
2022-10-04T06:29:01.431Z,15.90
2022-10-04T06:30:01.591Z,14.00
2022-10-04T06:31:02.127Z,12.30
2022-10-04T06:32:01.889Z,13.00
2022-10-04T06:33:02.036Z,12.60
2022-10-04T06:34:02.177Z,14.80
2022-10-04T06:35:02.346Z,12.10
2022-10-04T06:36:02.505Z,13.60
2022-10-04T06:37:02.825Z,13.90
2022-10-04T06:38:02.782Z,15.40
2022-10-04T06:39:04.380Z,14.20
2022-10-04T06:40:03.108Z,14.50
2022-10-04T06:41:03.270Z,13.10
2022-10-04T06:42:03.496Z,15.80
2022-10-04T06:43:03.597Z,14.50
2022-10-04T06:44:03.758Z,17.40
2022-10-04T06:45:03.914Z,15.00
2022-10-04T06:46:04.151Z,14.50
2022-10-04T06:47:04.266Z,15.00
2022-10-04T06:48:04.432Z,15.00
2022-10-04T06:49:04.556Z,15.80
2022-10-04T06:50:04.720Z,17.10
2022-10-04T06:51:04.878Z,15.00
2022-10-04T06:52:05.028Z,16.20
2022-10-04T06:53:05.214Z,16.30
2022-10-04T06:54:05.333Z,15.10
2022-10-04T06:55:05.445Z,16.20
2022-10-04T06:56:05.605Z,16.90
2022-10-04T06:57:05.723Z,16.30
2022-10-04T06:58:05.891Z,16.40
2022-10-04T06:59:06.032Z,14.20
2022-10-04T07:00:06.129Z,15.40
2022-10-04T07:01:06.287Z,16.10
2022-10-04T07:02:06.457Z,15.40
2022-10-04T07:03:06.528Z,14.70
2022-10-04T07:04:06.691Z,18.70
2022-10-04T07:05:09.205Z,14.30
2022-10-04T07:06:06.933Z,16.00
2022-10-04T07:07:07.074Z,17.10
2022-10-04T07:08:07.216Z,17.60
2022-10-04T07:09:07.459Z,17.00
2022-10-04T07:10:07.532Z,14.80
2022-10-04T07:11:12.132Z,15.90
2022-10-04T07:12:07.851Z,17.00
2022-10-04T07:13:08.009Z,14.60
2022-10-04T07:14:08.545Z,16.70
2022-10-04T07:15:08.299Z,16.40
2022-10-04T07:16:08.498Z,15.80
2022-10-04T07:17:08.602Z,16.50
2022-10-04T07:18:08.729Z,17.00
2022-10-04T07:19:08.896Z,16.90
2022-10-04T07:20:09.005Z,16.90
2022-10-04T07:21:09.183Z,17.80
2022-10-04T07:22:09.328Z,16.00
2022-10-04T07:23:09.441Z,14.40
2022-10-04T07:24:09.725Z,15.90
2022-10-04T07:25:09.731Z,17.10
2022-10-04T07:26:09.905Z,15.20
2022-10-04T07:27:10.038Z,17.10
2022-10-04T07:28:10.255Z,16.40
2022-10-04T07:29:10.278Z,17.10
2022-10-04T07:30:10.423Z,16.10
2022-10-04T07:31:10.627Z,17.20
2022-10-04T07:32:10.716Z,16.00
2022-10-04T07:33:10.821Z,17.60
2022-10-04T07:34:10.956Z,17.40
2022-10-04T07:35:11.084Z,18.40
2022-10-04T07:36:11.220Z,16.60
2022-10-04T07:37:11.374Z,14.90
2022-10-04T07:38:11.481Z,17.20
2022-10-04T07:39:11.646Z,17.50
2022-10-04T07:40:11.760Z,17.40
2022-10-04T07:41:11.888Z,21.40
2022-10-04T07:42:12.054Z,16.70
2022-10-04T07:43:12.170Z,18.00
2022-10-04T07:44:12.267Z,16.00
2022-10-04T07:45:12.418Z,17.20
2022-10-04T07:46:12.635Z,16.60
2022-10-04T07:47:12.653Z,18.00
2022-10-04T07:48:12.810Z,15.90
2022-10-04T07:49:12.901Z,16.00
2022-10-04T07:50:13.065Z,16.70
2022-10-04T07:51:13.160Z,17.30
2022-10-04T07:52:13.279Z,17.10
2022-10-04T07:53:13.401Z,17.10
2022-10-04T07:54:13.524Z,16.20
2022-10-04T07:55:13.715Z,16.40
2022-10-04T07:56:13.770Z,18.70
2022-10-04T07:57:13.904Z,16.40
2022-10-04T07:58:14.042Z,15.80
2022-10-04T07:59:14.195Z,18.20
2022-10-04T08:00:14.365Z,17.50
2022-10-04T08:01:14.489Z,16.20
2022-10-04T08:02:14.790Z,16.30
2022-10-04T08:03:14.805Z,15.50
2022-10-04T08:04:14.897Z,18.10
2022-10-04T08:05:15.080Z,18.90
2022-10-04T08:06:15.296Z,19.40
2022-10-04T08:07:15.369Z,17.30
2022-10-04T08:08:15.534Z,17.50
2022-10-04T08:09:15.694Z,15.90
2022-10-04T08:10:15.898Z,17.70
2022-10-04T08:11:16.369Z,17.60
2022-10-04T08:12:16.154Z,15.80
2022-10-04T08:13:16.311Z,16.60
2022-10-04T08:14:16.452Z,16.70
2022-10-04T08:15:16.677Z,16.00
2022-10-04T08:16:16.829Z,17.60
2022-10-04T08:17:16.858Z,16.40
2022-10-04T08:18:16.988Z,15.20
2022-10-04T08:19:17.130Z,16.90
2022-10-04T08:20:17.429Z,17.10
2022-10-04T08:21:17.386Z,17.40
2022-10-04T08:22:17.518Z,15.80
2022-10-04T08:23:17.648Z,16.90
2022-10-04T08:24:17.777Z,16.30
2022-10-04T08:25:18.079Z,17.00
2022-10-04T08:26:18.063Z,15.60
2022-10-04T08:27:18.168Z,17.90
2022-10-04T08:28:18.373Z,16.80
2022-10-04T08:29:18.424Z,15.90
2022-10-04T08:30:18.589Z,16.20
2022-10-04T08:31:18.759Z,15.20
2022-10-04T08:32:18.805Z,17.20
2022-10-04T08:33:18.983Z,19.00
2022-10-04T08:34:19.098Z,25.40
2022-10-04T08:35:19.379Z,16.20
2022-10-04T08:36:19.354Z,15.20
2022-10-04T08:37:19.485Z,14.70
2022-10-04T08:38:19.624Z,15.60
2022-10-04T08:39:19.743Z,17.10
2022-10-04T08:40:20.024Z,17.40
2022-10-04T08:41:20.034Z,16.10
2022-10-04T08:42:20.129Z,16.10
2022-10-04T08:43:20.252Z,14.20
2022-10-04T08:44:20.378Z,16.80
2022-10-04T08:45:20.679Z,14.10
2022-10-04T08:46:20.698Z,15.20
2022-10-04T08:47:22.129Z,15.90
2022-10-04T08:48:20.872Z,15.30
2022-10-04T08:49:21.005Z,14.50
2022-10-04T08:50:21.167Z,17.80
2022-10-04T08:51:21.259Z,15.10
2022-10-04T08:52:21.393Z,14.60
2022-10-04T08:53:21.522Z,16.70
2022-10-04T08:54:21.653Z,17.80
2022-10-04T08:55:21.812Z,15.00
2022-10-04T08:56:21.951Z,16.80
2022-10-04T08:57:22.082Z,16.50
2022-10-04T08:58:22.189Z,16.20
2022-10-04T08:59:22.324Z,17.60
2022-10-04T09:00:22.535Z,15.10
2022-10-04T09:01:22.679Z,16.70
2022-10-04T09:02:22.779Z,16.30
2022-10-04T09:03:24.873Z,16.50
2022-10-04T09:04:23.012Z,16.00
2022-10-04T09:05:23.169Z,16.40
2022-10-04T09:06:23.296Z,13.10
2022-10-04T09:07:23.384Z,16.00
2022-10-04T09:08:23.502Z,15.40
2022-10-04T09:09:23.614Z,16.70
2022-10-04T09:10:25.258Z,16.60
2022-10-04T09:11:23.896Z,15.00
2022-10-04T09:12:24.034Z,15.20
2022-10-04T09:13:24.315Z,18.50
2022-10-04T09:14:24.350Z,13.80
2022-10-04T09:15:24.463Z,14.10
2022-10-04T09:16:24.722Z,16.00
2022-10-04T09:17:24.696Z,16.60
2022-10-04T09:18:24.837Z,15.20
2022-10-04T09:19:24.915Z,14.90
2022-10-04T09:20:38.461Z,14.80
2022-10-04T09:21:25.175Z,15.70
2022-10-04T09:22:25.267Z,14.90
2022-10-04T09:23:25.390Z,17.10
2022-10-04T09:24:25.550Z,16.80
2022-10-04T09:25:25.698Z,13.80
2022-10-04T09:26:25.883Z,16.20
2022-10-04T09:27:53.097Z,14.60
2022-10-04T09:28:26.187Z,13.10
2022-10-04T09:29:26.306Z,13.90
2022-10-04T09:30:26.394Z,14.50
2022-10-04T09:31:26.633Z,11.30
2022-10-04T09:32:26.630Z,13.10
2022-10-04T09:33:26.747Z,12.10
2022-10-04T09:34:26.861Z,15.30
2022-10-04T09:35:26.970Z,13.30
2022-10-04T09:36:27.274Z,13.30
2022-10-04T09:37:27.255Z,13.30
2022-10-04T09:38:27.392Z,12.30
2022-10-04T09:39:31.242Z,13.20
2022-10-04T09:40:27.685Z,11.90
2022-10-04T09:41:27.862Z,12.50
2022-10-04T09:42:28.011Z,11.10
2022-10-04T09:43:28.101Z,12.50
2022-10-04T09:44:28.311Z,11.20
2022-10-04T09:45:28.380Z,12.30
2022-10-04T09:46:28.668Z,11.80
2022-10-04T09:47:28.656Z,11.60
2022-10-04T09:48:28.826Z,10.40
2022-10-04T09:49:28.913Z,11.90
2022-10-04T09:50:29.038Z,11.70
2022-10-04T09:51:29.162Z,10.20
2022-10-04T09:52:29.276Z,11.50
2022-10-04T09:53:29.415Z,12.10
2022-10-04T09:54:29.522Z,12.00
2022-10-04T09:55:29.601Z,11.40
2022-10-04T09:56:29.718Z,11.20
2022-10-04T09:57:29.883Z,9.90
2022-10-04T09:58:29.968Z,10.60
2022-10-04T09:59:30.128Z,10.20
2022-10-04T10:00:30.164Z,12.10
2022-10-04T10:01:30.289Z,9.70
2022-10-04T10:02:30.439Z,9.20
2022-10-04T10:03:30.479Z,9.40
2022-10-04T10:04:30.637Z,10.40
2022-10-04T10:05:30.738Z,10.90
2022-10-04T10:06:30.836Z,11.30
2022-10-04T10:07:30.953Z,9.00
2022-10-04T10:08:31.046Z,8.10
2022-10-04T10:09:31.394Z,9.70
2022-10-04T10:10:31.263Z,10.10
2022-10-04T10:11:31.378Z,9.50
2022-10-04T10:12:31.482Z,11.10
2022-10-04T10:13:32.236Z,9.30
2022-10-04T10:14:31.730Z,9.80
2022-10-04T10:15:31.914Z,9.30
2022-10-04T10:16:31.947Z,12.10
2022-10-04T10:17:32.060Z,10.50
2022-10-04T10:18:32.220Z,9.90
2022-10-04T10:19:32.255Z,9.90
2022-10-04T10:20:32.376Z,9.90
2022-10-04T10:21:32.571Z,11.90
2022-10-04T10:22:32.584Z,11.60
2022-10-04T10:23:32.699Z,8.60
2022-10-04T10:24:32.819Z,8.40
2022-10-04T10:25:32.935Z,8.60
2022-10-04T10:26:33.065Z,8.70
2022-10-04T10:27:33.257Z,8.40
2022-10-04T10:28:33.308Z,9.70
2022-10-04T10:29:33.403Z,9.60
2022-10-04T10:30:33.545Z,10.20
2022-10-04T10:31:33.780Z,10.40
2022-10-04T10:32:33.855Z,9.40
2022-10-04T10:33:33.967Z,9.40
2022-10-04T10:34:34.337Z,10.40
2022-10-04T10:35:34.245Z,9.10
2022-10-04T10:36:34.378Z,10.00
2022-10-04T10:37:34.525Z,9.80
2022-10-04T10:38:34.642Z,10.00
2022-10-04T10:39:34.793Z,9.10
2022-10-04T10:40:34.892Z,8.80
2022-10-04T10:41:35.034Z,8.80
2022-10-04T10:42:35.414Z,10.10
2022-10-04T10:43:35.309Z,9.00
2022-10-04T10:44:35.434Z,9.50
2022-10-04T10:45:35.559Z,9.00
2022-10-04T10:46:35.804Z,8.80
2022-10-04T10:47:35.901Z,9.40
2022-10-04T10:48:35.931Z,9.80
2022-10-04T10:49:36.044Z,9.40
2022-10-04T10:50:36.163Z,9.50
2022-10-04T10:51:36.285Z,7.30
2022-10-04T10:52:36.426Z,8.40
2022-10-04T10:53:36.479Z,8.80
2022-10-04T10:54:36.576Z,8.80
2022-10-04T10:55:36.670Z,8.80
2022-10-04T10:56:36.762Z,9.70
2022-10-04T10:57:36.886Z,10.30
2022-10-04T10:58:36.966Z,9.00
2022-10-04T10:59:37.099Z,8.70
2022-10-04T11:00:37.235Z,9.60
2022-10-04T11:01:37.442Z,10.00
2022-10-04T11:02:49.533Z,8.90
2022-10-04T11:03:37.760Z,8.70
2022-10-04T11:04:37.754Z,8.90
2022-10-04T11:05:37.883Z,9.10
2022-10-04T11:06:38.010Z,7.90
2022-10-04T11:07:38.172Z,8.80
2022-10-04T11:08:38.271Z,9.20
2022-10-04T11:09:38.407Z,12.60
2022-10-04T11:10:38.531Z,10.80
2022-10-04T11:11:38.652Z,9.50
2022-10-04T11:12:38.810Z,10.10
2022-10-04T11:13:38.955Z,10.40
2022-10-04T11:14:38.991Z,9.80
2022-10-04T11:15:39.182Z,9.90
2022-10-04T11:16:39.212Z,9.30
2022-10-04T11:17:39.351Z,11.50
2022-10-04T11:18:39.433Z,9.30
2022-10-04T11:19:39.568Z,10.00
2022-10-04T11:20:39.665Z,10.30
2022-10-04T11:21:39.746Z,10.20
2022-10-04T11:22:39.882Z,10.20
2022-10-04T11:23:39.959Z,10.60
2022-10-04T11:24:40.073Z,10.30
2022-10-04T11:25:40.178Z,10.30
2022-10-04T11:26:40.282Z,11.50
2022-10-04T11:27:40.421Z,10.50
2022-10-04T11:28:40.533Z,9.50
2022-10-04T11:29:40.582Z,9.00
2022-10-04T11:30:40.725Z,9.90
2022-10-04T11:31:41.143Z,10.70
2022-10-04T11:32:40.939Z,8.70
2022-10-04T11:33:41.040Z,9.40
2022-10-04T11:34:41.171Z,8.90
2022-10-04T11:35:41.237Z,8.20
2022-10-04T11:36:41.375Z,10.10
2022-10-04T11:37:41.459Z,8.30
2022-10-04T11:38:41.618Z,9.60
2022-10-04T11:39:44.504Z,9.20
2022-10-04T11:40:41.835Z,9.80
2022-10-04T11:41:41.957Z,9.40
2022-10-04T11:42:42.061Z,9.80
2022-10-04T11:43:42.391Z,10.00
2022-10-04T11:44:42.267Z,10.00
2022-10-04T11:45:42.364Z,10.70
2022-10-04T11:46:43.049Z,9.90
2022-10-04T11:47:42.565Z,9.00
2022-10-04T11:48:42.702Z,8.70
2022-10-04T11:49:42.776Z,7.90
2022-10-04T11:50:42.915Z,9.70
2022-10-04T11:51:43.006Z,9.90
2022-10-04T11:52:43.134Z,9.00
2022-10-04T11:53:43.208Z,9.00
2022-10-04T11:54:43.350Z,9.40
2022-10-04T11:55:43.434Z,9.90
2022-10-04T11:56:43.967Z,8.00
2022-10-04T11:57:43.681Z,8.10
2022-10-04T11:58:43.795Z,10.20
2022-10-04T11:59:44.033Z,8.40
2022-10-04T12:00:44.036Z,9.30
2022-10-04T12:01:44.154Z,10.20
2022-10-04T12:02:44.335Z,11.10
2022-10-04T12:03:44.559Z,10.00
2022-10-04T12:04:44.655Z,10.60
2022-10-04T12:05:44.624Z,10.80
2022-10-04T12:06:45.073Z,10.20
2022-10-04T12:07:44.914Z,11.10
2022-10-04T12:08:44.998Z,9.40
2022-10-04T12:09:45.127Z,8.40
2022-10-04T12:10:45.291Z,9.90
2022-10-04T12:11:45.379Z,10.00
2022-10-04T12:12:45.538Z,7.50
2022-10-04T12:13:45.629Z,12.10
2022-10-04T12:14:45.750Z,9.50
2022-10-04T12:15:45.891Z,8.90
2022-10-04T12:16:46.252Z,9.50
2022-10-04T12:17:46.087Z,9.80
2022-10-04T12:18:46.201Z,10.80
2022-10-04T12:19:46.347Z,8.80
2022-10-04T12:20:46.486Z,10.50
2022-10-04T12:21:46.577Z,9.20
2022-10-04T12:22:46.813Z,10.00
2022-10-04T12:23:46.812Z,8.80
2022-10-04T12:24:46.953Z,10.70
2022-10-04T12:25:47.099Z,10.10
2022-10-04T12:26:47.920Z,11.30
2022-10-04T12:27:47.474Z,9.10
2022-10-04T12:28:47.504Z,9.10
2022-10-04T12:29:47.633Z,9.20
2022-10-04T12:30:47.782Z,10.70
2022-10-04T12:31:47.996Z,12.20
2022-10-04T12:32:48.078Z,10.30
2022-10-04T12:33:48.176Z,10.60
2022-10-04T12:34:48.319Z,10.40
2022-10-04T12:35:48.420Z,11.70
2022-10-04T12:36:48.876Z,11.50
2022-10-04T12:37:48.875Z,9.30
2022-10-04T12:38:48.763Z,10.00
2022-10-04T12:39:48.838Z,10.40
2022-10-04T12:40:48.945Z,10.80
2022-10-04T12:41:49.062Z,9.80
2022-10-04T12:42:49.199Z,10.40
2022-10-04T12:43:49.264Z,10.40
2022-10-04T12:44:49.367Z,9.20
2022-10-04T12:45:49.535Z,9.10
2022-10-04T12:46:49.619Z,10.40
2022-10-04T12:47:49.735Z,10.60
2022-10-04T12:48:49.807Z,10.10
2022-10-04T12:49:49.904Z,11.70
2022-10-04T12:50:50.003Z,9.70
2022-10-04T12:51:50.120Z,10.50
2022-10-04T12:52:50.339Z,9.30
2022-10-04T12:53:50.338Z,10.90
2022-10-04T12:54:50.463Z,9.90
2022-10-04T12:55:50.532Z,9.10
2022-10-04T12:56:50.653Z,10.40
2022-10-04T12:57:50.803Z,9.20
2022-10-04T12:58:50.920Z,9.70
2022-10-04T12:59:51.016Z,8.30
2022-10-04T13:00:51.142Z,9.00
2022-10-04T13:01:51.372Z,9.50
2022-10-04T13:02:51.409Z,8.50
2022-10-04T13:03:51.472Z,9.00
2022-10-04T13:04:51.597Z,9.70